createdAt,value
2018-03-27T00:02:07.610Z,32.05
2018-03-27T00:04:33.635Z,30.60
2018-03-27T00:06:59.688Z,32.97
2018-03-27T00:09:25.837Z,29.70
2018-03-27T00:11:51.977Z,29.95
2018-03-27T00:14:18.011Z,32.30
2018-03-27T00:16:44.008Z,33.30
2018-03-27T00:19:10.042Z,30.20
2018-03-27T00:21:36.076Z,30.20
2018-03-27T00:24:02.074Z,32.40
2018-03-27T00:26:28.192Z,29.80
2018-03-27T00:29:06.484Z,29.85
2018-03-27T00:31:44.694Z,31.48
2018-03-27T00:34:22.809Z,30.42
2018-03-27T00:37:00.939Z,30.27
2018-03-27T00:39:38.960Z,30.27
2018-03-27T00:42:20.700Z,30.15
2018-03-27T00:44:46.692Z,31.80
2018-03-27T00:47:12.687Z,33.72
2018-03-27T00:49:38.692Z,34.63
2018-03-27T00:52:04.695Z,35.00
2018-03-27T00:54:30.694Z,34.20
2018-03-27T00:56:56.707Z,34.47
2018-03-27T00:59:22.728Z,33.17
2018-03-27T01:01:48.729Z,32.63
2018-03-27T01:04:14.721Z,33.55
2018-03-27T01:06:40.721Z,30.83
2018-03-27T01:09:06.725Z,33.08
2018-03-27T01:11:32.716Z,34.60
2018-03-27T01:13:58.789Z,30.98
2018-03-27T01:16:24.785Z,35.10
2018-03-27T01:18:50.786Z,33.35
2018-03-27T01:21:16.763Z,31.73
2018-03-27T01:23:42.814Z,32.92
2018-03-27T01:26:08.832Z,34.22
2018-03-27T01:28:35.602Z,32.85
2018-03-27T01:31:01.699Z,30.98
2018-03-27T01:33:27.703Z,30.73
2018-03-27T01:35:53.722Z,30.88
2018-03-27T01:38:19.846Z,27.62
2018-03-27T01:40:45.876Z,34.90
2018-03-27T01:43:11.900Z,36.42
2018-03-27T01:45:37.895Z,28.52
2018-03-27T01:48:03.958Z,32.88
2018-03-27T01:50:30.096Z,32.95
2018-03-27T01:52:56.107Z,27.25
2018-03-27T01:55:22.133Z,36.55
2018-03-27T01:57:48.695Z,36.63
2018-03-27T02:00:14.708Z,36.60
2018-03-27T02:02:40.725Z,28.50
2018-03-27T02:05:06.722Z,34.97
2018-03-27T02:07:32.723Z,34.92
2018-03-27T02:09:58.744Z,36.92
2018-03-27T02:12:30.643Z,34.08
2018-03-27T02:15:02.649Z,32.55
2018-03-27T02:17:34.643Z,33.95
2018-03-27T02:20:06.677Z,34.45
2018-03-27T02:22:33.602Z,27.33
2018-03-27T02:24:59.709Z,34.13
2018-03-27T02:27:25.835Z,36.42
2018-03-27T02:29:51.821Z,34.88
2018-03-27T02:32:17.913Z,33.72
2018-03-27T02:34:44.146Z,33.58
2018-03-27T02:37:10.303Z,37.70
2018-03-27T02:39:36.364Z,38.33
2018-03-27T02:42:02.378Z,36.47
2018-03-27T02:44:28.407Z,33.85
2018-03-27T02:46:54.468Z,35.58
2018-03-27T02:49:20.466Z,32.60
2018-03-27T02:51:46.462Z,34.15
2018-03-27T02:54:12.508Z,29.60
2018-03-27T02:56:38.517Z,34.47
2018-03-27T02:59:04.529Z,34.67
2018-03-27T03:01:30.577Z,29.73
2018-03-27T03:03:56.589Z,31.70
2018-03-27T03:06:22.569Z,31.23
2018-03-27T03:08:48.712Z,32.25
2018-03-27T03:11:14.726Z,32.08
2018-03-27T03:13:40.710Z,30.52
2018-03-27T03:16:06.718Z,33.38
2018-03-27T03:18:32.701Z,33.95
2018-03-27T03:20:58.701Z,32.00
2018-03-27T03:23:24.697Z,34.00
2018-03-27T03:25:50.689Z,32.03
2018-03-27T03:28:16.714Z,32.88
2018-03-27T03:30:42.701Z,32.72
2018-03-27T03:33:08.712Z,32.72
2018-03-27T03:35:34.708Z,30.92
2018-03-27T03:38:00.695Z,30.20
2018-03-27T03:40:26.673Z,29.67
2018-03-27T03:42:52.685Z,29.08
2018-03-27T03:45:18.662Z,30.23
2018-03-27T03:47:44.644Z,30.15
2018-03-27T03:50:10.706Z,27.95
2018-03-27T03:52:36.725Z,29.55
2018-03-27T03:55:02.709Z,27.75
2018-03-27T03:57:28.695Z,27.05
2018-03-27T03:59:54.673Z,29.23
2018-03-27T04:02:20.735Z,30.02
2018-03-27T04:04:46.725Z,29.40
2018-03-27T04:07:12.760Z,28.98
2018-03-27T04:09:38.741Z,30.60
2018-03-27T04:12:04.711Z,31.05
2018-03-27T04:14:30.766Z,32.63
2018-03-27T04:16:56.796Z,29.77
2018-03-27T04:19:22.809Z,30.70
2018-03-27T04:21:48.773Z,29.02
2018-03-27T04:24:14.750Z,28.25
2018-03-27T04:26:40.746Z,30.27
2018-03-27T04:29:06.705Z,30.98
2018-03-27T04:31:32.720Z,29.80
2018-03-27T04:33:58.713Z,29.60
2018-03-27T04:36:24.713Z,30.67
2018-03-27T04:38:50.718Z,31.17
2018-03-27T04:41:16.711Z,31.12
2018-03-27T04:43:42.695Z,31.02
2018-03-27T04:46:08.748Z,31.92
2018-03-27T04:48:34.756Z,31.50
2018-03-27T04:51:00.811Z,31.98
2018-03-27T04:53:26.801Z,29.10
2018-03-27T04:55:52.800Z,30.73
2018-03-27T04:58:18.796Z,30.17
2018-03-27T05:00:44.791Z,32.33
2018-03-27T05:03:10.766Z,31.73
2018-03-27T05:05:36.796Z,34.05
2018-03-27T05:08:02.824Z,31.83
2018-03-27T05:10:28.818Z,33.63
2018-03-27T05:12:54.817Z,33.92
2018-03-27T05:15:22.075Z,36.08
2018-03-27T05:17:48.163Z,34.55
2018-03-27T05:20:14.191Z,33.83
2018-03-27T05:22:40.230Z,33.97
2018-03-27T05:25:06.278Z,33.75
2018-03-27T05:27:32.472Z,34.92
2018-03-27T05:29:58.565Z,34.67
2018-03-27T05:32:24.975Z,32.90
2018-03-27T05:34:50.966Z,34.33
2018-03-27T05:37:16.984Z,34.35
2018-03-27T05:39:43.012Z,33.70
2018-03-27T05:42:09.079Z,32.67
2018-03-27T05:44:35.098Z,27.48
2018-03-27T05:47:01.081Z,33.47
2018-03-27T05:49:27.078Z,33.28
2018-03-27T05:51:53.103Z,28.35
2018-03-27T05:54:19.208Z,32.85
2018-03-27T05:56:45.474Z,34.03
2018-03-27T05:59:11.546Z,32.58
2018-03-27T06:01:38.001Z,32.63
2018-03-27T06:04:04.450Z,31.77
2018-03-27T06:06:30.446Z,32.72
2018-03-27T06:08:56.475Z,31.77
2018-03-27T06:11:22.441Z,31.60
2018-03-27T06:13:48.427Z,24.75
2018-03-27T06:16:14.518Z,32.25
2018-03-27T06:18:40.553Z,31.42
2018-03-27T06:21:06.532Z,32.85
2018-03-27T06:23:32.545Z,26.87
2018-03-27T06:25:58.557Z,29.58
2018-03-27T06:28:24.562Z,23.65
2018-03-27T06:30:50.546Z,29.77
2018-03-27T06:33:16.603Z,22.85
2018-03-27T06:35:42.609Z,23.48
2018-03-27T06:38:08.598Z,29.70
2018-03-27T06:40:34.638Z,22.33
2018-03-27T06:43:00.665Z,27.95
2018-03-27T06:45:26.666Z,22.48
2018-03-27T06:47:54.127Z,22.42
2018-03-27T06:50:20.122Z,23.12
2018-03-27T06:52:46.358Z,23.95
2018-03-27T06:55:12.389Z,22.42
2018-03-27T06:57:38.512Z,22.70
2018-03-27T07:00:04.509Z,22.33
2018-03-27T07:02:30.566Z,23.10
2018-03-27T07:04:56.568Z,22.15
2018-03-27T07:07:22.642Z,25.92
2018-03-27T07:09:48.725Z,20.70
2018-03-27T07:12:14.777Z,26.20
2018-03-27T07:14:40.827Z,25.60
2018-03-27T07:17:06.989Z,24.48
2018-03-27T07:19:33.247Z,25.45
2018-03-27T07:21:59.259Z,22.52
2018-03-27T07:24:25.250Z,18.33
2018-03-27T07:26:51.282Z,21.12
2018-03-27T07:29:17.310Z,20.55
2018-03-27T07:31:43.455Z,20.10
2018-03-27T07:34:09.515Z,16.80
2018-03-27T07:36:36.177Z,15.85
2018-03-27T07:39:02.274Z,19.08
2018-03-27T07:41:28.331Z,15.35
2018-03-27T07:43:54.447Z,17.95
2018-03-27T07:46:20.569Z,13.65
2018-03-27T07:48:46.575Z,13.77
2018-03-27T07:51:12.564Z,13.75
2018-03-27T07:53:38.563Z,14.02
2018-03-27T07:56:04.590Z,12.60
2018-03-27T07:58:30.607Z,14.27
2018-03-27T08:00:56.653Z,16.15
2018-03-27T08:03:22.718Z,13.15
2018-03-27T08:05:48.807Z,14.27
2018-03-27T08:08:14.814Z,17.17
2018-03-27T08:10:40.874Z,12.65
2018-03-27T08:13:06.903Z,13.55
2018-03-27T08:15:32.924Z,12.52
2018-03-27T08:17:58.980Z,12.90
2018-03-27T08:20:25.673Z,12.77
2018-03-27T08:22:51.769Z,12.75
2018-03-27T08:25:17.792Z,12.73
2018-03-27T08:27:43.838Z,13.20
2018-03-27T08:30:09.956Z,12.65
2018-03-27T08:32:37.034Z,12.57
2018-03-27T08:35:03.103Z,12.45
2018-03-27T08:37:29.130Z,13.35
2018-03-27T08:39:55.157Z,12.95
2018-03-27T08:42:21.182Z,13.55
2018-03-27T08:44:47.266Z,12.57
2018-03-27T08:47:13.340Z,13.52
2018-03-27T08:49:39.353Z,12.50
2018-03-27T08:52:05.368Z,11.40
2018-03-27T08:54:31.376Z,12.02
2018-03-27T08:56:57.379Z,13.25
2018-03-27T08:59:23.458Z,13.13
2018-03-27T09:01:49.571Z,12.75
2018-03-27T09:04:15.656Z,13.00
2018-03-27T09:06:41.668Z,14.20
2018-03-27T09:09:07.726Z,11.70
2018-03-27T09:11:33.933Z,12.20
2018-03-27T09:14:00.081Z,11.70
2018-03-27T09:16:26.212Z,11.80
2018-03-27T09:18:52.247Z,12.23
2018-03-27T09:21:18.291Z,11.10
2018-03-27T09:23:45.293Z,10.60
2018-03-27T09:26:11.446Z,12.02
2018-03-27T09:28:37.539Z,10.75
2018-03-27T09:31:03.546Z,10.73
2018-03-27T09:33:29.647Z,10.57
2018-03-27T09:35:55.688Z,10.50
2018-03-27T09:38:21.752Z,11.02
2018-03-27T09:40:47.737Z,11.45
2018-03-27T09:43:13.871Z,11.75
2018-03-27T09:45:39.895Z,11.10
2018-03-27T09:48:05.906Z,11.82
2018-03-27T09:50:31.954Z,11.20
2018-03-27T09:52:58.018Z,11.50
2018-03-27T09:55:24.591Z,11.77
2018-03-27T09:57:50.606Z,12.52
2018-03-27T10:00:16.751Z,12.90
2018-03-27T10:02:42.793Z,13.30
2018-03-27T10:05:08.881Z,13.18
2018-03-27T10:07:34.898Z,14.25
2018-03-27T10:10:00.913Z,16.30
2018-03-27T10:12:26.936Z,14.85
2018-03-27T10:14:52.977Z,16.33
2018-03-27T10:17:18.986Z,15.60
2018-03-27T10:19:45.035Z,15.90
2018-03-27T10:22:11.184Z,16.25
2018-03-27T10:24:37.831Z,15.68
2018-03-27T10:27:04.002Z,17.00
2018-03-27T10:29:30.018Z,17.77
2018-03-27T10:31:56.053Z,17.40
2018-03-27T10:34:22.215Z,15.80
2018-03-27T10:36:48.266Z,16.58
2018-03-27T10:39:14.272Z,18.17
2018-03-27T10:41:40.249Z,17.87
2018-03-27T10:44:06.368Z,16.97
2018-03-27T10:46:32.382Z,17.12
2018-03-27T10:48:58.392Z,18.85
2018-03-27T10:51:24.470Z,15.48
2018-03-27T10:53:50.539Z,12.77
2018-03-27T10:56:16.567Z,13.20
2018-03-27T10:58:42.638Z,14.02
2018-03-27T11:01:08.733Z,13.62
2018-03-27T11:03:34.742Z,13.38
2018-03-27T11:06:00.764Z,13.38
2018-03-27T11:08:26.775Z,10.80
2018-03-27T11:10:52.763Z,11.43
2018-03-27T11:13:18.837Z,11.65
2018-03-27T11:15:44.899Z,13.55
2018-03-27T11:18:10.999Z,12.82
2018-03-27T11:20:37.093Z,13.45
2018-03-27T11:23:03.112Z,14.45
2018-03-27T11:25:29.098Z,14.43
2018-03-27T11:27:55.138Z,16.45
2018-03-27T11:30:21.181Z,15.85
2018-03-27T11:32:47.264Z,17.10
2018-03-27T11:35:13.339Z,17.77
2018-03-27T11:37:39.439Z,17.37
2018-03-27T11:40:05.500Z,17.87
2018-03-27T11:42:31.558Z,19.02
2018-03-27T11:44:57.669Z,19.27
2018-03-27T11:47:23.703Z,19.87
2018-03-27T11:49:49.694Z,19.92
2018-03-27T11:52:15.869Z,20.60
2018-03-27T11:54:42.053Z,22.25
2018-03-27T11:57:08.146Z,20.23
2018-03-27T11:59:34.174Z,22.05
2018-03-27T12:02:00.206Z,21.70
2018-03-27T12:04:26.322Z,23.52
2018-03-27T12:06:52.421Z,22.13
2018-03-27T12:09:18.420Z,21.98
2018-03-27T12:11:44.438Z,20.48
2018-03-27T12:14:10.486Z,18.00
2018-03-27T12:16:36.506Z,21.58
2018-03-27T12:19:02.513Z,21.10
2018-03-27T12:21:28.586Z,21.67
2018-03-27T12:23:54.586Z,22.00
2018-03-27T12:26:20.596Z,22.27
2018-03-27T12:28:46.612Z,22.20
2018-03-27T12:31:12.633Z,21.65
2018-03-27T12:33:38.658Z,21.62
2018-03-27T12:36:04.730Z,22.62
2018-03-27T12:38:30.846Z,18.58
2018-03-27T12:40:56.858Z,17.75
2018-03-27T12:43:22.874Z,19.50
2018-03-27T12:45:48.873Z,22.55
2018-03-27T12:48:14.875Z,22.23
2018-03-27T12:50:40.904Z,18.27
2018-03-27T12:53:06.922Z,19.73
2018-03-27T12:55:32.943Z,24.17
2018-03-27T12:57:58.920Z,22.48
2018-03-27T13:00:24.942Z,20.53
2018-03-27T13:02:50.994Z,19.35
2018-03-27T13:05:17.014Z,17.70
2018-03-27T13:07:43.058Z,18.20
2018-03-27T13:10:09.209Z,20.40
2018-03-27T13:12:35.242Z,21.67
2018-03-27T13:15:02.041Z,20.42
2018-03-27T13:17:35.063Z,16.45
2018-03-27T13:20:01.141Z,18.33
2018-03-27T13:22:27.189Z,18.48
2018-03-27T13:24:53.836Z,19.08
2018-03-27T13:27:19.990Z,17.98
2018-03-27T13:29:46.048Z,16.70
2018-03-27T13:32:12.154Z,15.38
2018-03-27T13:34:39.098Z,14.70
2018-03-27T13:37:05.129Z,15.40
2018-03-27T13:39:31.894Z,14.32
2018-03-27T13:41:58.058Z,15.43
2018-03-27T13:44:24.194Z,14.35
2018-03-27T13:46:50.301Z,15.52
2018-03-27T13:49:16.344Z,16.12
2018-03-27T13:51:42.420Z,15.82
2018-03-27T13:54:08.662Z,15.13
2018-03-27T13:56:34.671Z,15.18
2018-03-27T13:59:00.678Z,14.45
2018-03-27T14:01:26.744Z,14.65
2018-03-27T14:03:52.758Z,16.62
2018-03-27T14:06:18.769Z,14.45
2018-03-27T14:08:44.829Z,16.23
2018-03-27T14:11:10.839Z,17.15
2018-03-27T14:13:36.828Z,16.27
2018-03-27T14:16:02.870Z,17.42
2018-03-27T14:18:28.919Z,16.27
2018-03-27T14:20:54.930Z,18.33
2018-03-27T14:23:20.965Z,16.85
2018-03-27T14:25:47.000Z,17.40
2018-03-27T14:28:12.995Z,14.87
2018-03-27T14:30:39.062Z,16.12
2018-03-27T14:33:05.043Z,15.68
2018-03-27T14:35:31.064Z,15.55
2018-03-27T14:37:57.108Z,16.20
2018-03-27T14:40:23.157Z,17.42
2018-03-27T14:42:49.193Z,16.30
2018-03-27T14:45:15.292Z,16.67
2018-03-27T14:47:41.293Z,16.27
2018-03-27T14:50:07.363Z,17.30
2018-03-27T14:52:33.622Z,16.45
2018-03-27T14:54:59.764Z,16.35
2018-03-27T14:57:25.829Z,16.62
2018-03-27T14:59:51.877Z,17.50
2018-03-27T15:02:17.968Z,17.55
2018-03-27T15:04:44.043Z,20.83
2018-03-27T15:07:10.100Z,18.52
2018-03-27T15:09:36.118Z,17.95
2018-03-27T15:12:02.643Z,19.35
2018-03-27T15:14:28.687Z,23.10
2018-03-27T15:16:54.723Z,19.87
2018-03-27T15:19:20.766Z,20.90
2018-03-27T15:21:46.804Z,21.55
2018-03-27T15:24:12.818Z,23.33
2018-03-27T15:26:38.914Z,23.05
2018-03-27T15:29:04.981Z,23.12
2018-03-27T15:31:31.010Z,24.42
2018-03-27T15:33:57.034Z,24.52
2018-03-27T15:36:23.507Z,23.50
2018-03-27T15:38:49.530Z,22.73
2018-03-27T15:41:15.629Z,23.10
2018-03-27T15:43:41.734Z,22.00
2018-03-27T15:46:07.750Z,21.00
2018-03-27T15:48:33.813Z,22.55
2018-03-27T15:51:00.470Z,21.52
2018-03-27T15:53:26.509Z,24.05
2018-03-27T15:55:52.547Z,22.30
2018-03-27T15:58:18.601Z,23.55
2018-03-27T16:00:44.614Z,23.00
2018-03-27T16:03:10.643Z,21.12
2018-03-27T16:05:36.736Z,25.15
2018-03-27T16:08:02.744Z,19.52
2018-03-27T16:10:28.801Z,22.87
2018-03-27T16:12:54.883Z,20.98
2018-03-27T16:15:20.904Z,26.23
2018-03-27T16:17:46.922Z,23.35
2018-03-27T16:20:12.966Z,28.58
2018-03-27T16:22:38.999Z,24.05
2018-03-27T16:25:05.021Z,22.27
2018-03-27T16:27:31.118Z,23.58
2018-03-27T16:29:57.105Z,22.65
2018-03-27T16:32:23.189Z,22.95
2018-03-27T16:34:49.307Z,23.05
2018-03-27T16:37:16.325Z,21.27
2018-03-27T16:39:42.355Z,22.02
2018-03-27T16:42:08.540Z,21.15
2018-03-27T16:44:35.613Z,21.20
2018-03-27T16:47:01.758Z,21.15
2018-03-27T16:49:27.840Z,21.67
2018-03-27T16:51:53.850Z,24.45
2018-03-27T16:54:19.920Z,21.95
2018-03-27T16:56:46.036Z,21.42
2018-03-27T16:59:12.121Z,26.73
2018-03-27T17:01:38.169Z,24.12
2018-03-27T17:04:04.243Z,23.80
2018-03-27T17:06:30.351Z,24.55
2018-03-27T17:08:56.444Z,29.48
2018-03-27T17:11:22.459Z,30.02
2018-03-27T17:13:48.484Z,25.77
2018-03-27T17:16:14.594Z,29.42
2018-03-27T17:18:40.643Z,22.58
2018-03-27T17:21:06.652Z,29.02
2018-03-27T17:23:32.691Z,24.02
2018-03-27T17:25:58.752Z,29.48
2018-03-27T17:28:24.779Z,29.40
2018-03-27T17:31:55.494Z,26.42
2018-03-27T17:34:21.535Z,30.30
2018-03-27T17:36:47.638Z,27.87
2018-03-27T17:39:17.014Z,28.95
2018-03-27T17:41:43.064Z,25.83
2018-03-27T17:44:09.117Z,29.42
2018-03-27T17:46:35.185Z,24.73
2018-03-27T17:49:01.208Z,30.12
2018-03-27T17:51:27.284Z,26.30
2018-03-27T17:53:53.396Z,30.73
2018-03-27T17:56:19.550Z,27.40
2018-03-27T17:58:45.620Z,26.25
2018-03-27T18:01:11.694Z,31.20
2018-03-27T18:03:37.749Z,25.58
2018-03-27T18:06:03.813Z,32.00
2018-03-27T18:08:30.026Z,31.55
2018-03-27T18:10:56.158Z,27.27
2018-03-27T18:13:22.318Z,31.00
2018-03-27T18:15:48.464Z,28.52
2018-03-27T18:18:14.553Z,36.00
2018-03-27T18:20:40.683Z,29.33
2018-03-27T18:23:06.738Z,35.15
2018-03-27T18:25:32.809Z,29.60
2018-03-27T18:27:58.896Z,35.50
2018-03-27T18:30:25.025Z,29.95
2018-03-27T18:32:51.066Z,29.92
2018-03-27T18:35:17.101Z,29.60
2018-03-27T18:37:43.142Z,30.98
2018-03-27T18:40:09.319Z,30.37
2018-03-27T18:42:35.405Z,30.27
2018-03-27T18:45:01.482Z,30.95
2018-03-27T18:47:27.559Z,31.00
2018-03-27T18:49:53.625Z,31.77
2018-03-27T18:52:19.792Z,33.28
2018-03-27T18:54:46.017Z,37.90
2018-03-27T18:57:12.154Z,32.63
2018-03-27T18:59:38.281Z,34.05
2018-03-27T19:02:04.337Z,33.58
2018-03-27T19:04:30.359Z,39.65
2018-03-27T19:06:56.587Z,35.85
2018-03-27T19:09:22.755Z,40.92
2018-03-27T19:11:48.827Z,36.58
2018-03-27T19:14:14.935Z,37.58
2018-03-27T19:16:41.002Z,37.65
2018-03-27T19:19:07.150Z,43.17
2018-03-27T19:21:33.183Z,38.60
2018-03-27T19:23:59.273Z,45.17
2018-03-27T19:26:25.307Z,39.30
2018-03-27T19:28:51.344Z,38.47
2018-03-27T19:31:17.394Z,37.33
2018-03-27T19:33:43.430Z,38.45
2018-03-27T19:36:11.451Z,40.10
2018-03-27T19:38:37.793Z,47.97
2018-03-27T19:41:03.822Z,38.00
2018-03-27T19:43:30.568Z,46.13
2018-03-27T19:45:56.641Z,40.85
2018-03-27T19:48:22.721Z,44.47
2018-03-27T19:50:48.850Z,39.97
2018-03-27T19:53:14.906Z,42.47
2018-03-27T19:55:41.013Z,40.15
2018-03-27T19:58:07.116Z,41.97
2018-03-27T20:00:33.179Z,45.90
2018-03-27T20:02:59.235Z,40.17
2018-03-27T20:05:25.359Z,46.83
2018-03-27T20:07:51.390Z,42.62
2018-03-27T20:10:17.435Z,47.58
2018-03-27T20:12:43.534Z,42.85
2018-03-27T20:15:09.596Z,45.33
2018-03-27T20:17:35.680Z,47.38
2018-03-27T20:20:01.923Z,46.42
2018-03-27T20:22:28.948Z,45.88
2018-03-27T20:24:55.030Z,46.65
2018-03-27T20:27:21.081Z,45.80
2018-03-27T20:29:47.117Z,51.42
2018-03-27T20:32:13.204Z,46.20
2018-03-27T20:34:39.246Z,45.12
2018-03-27T20:37:05.396Z,44.17
2018-03-27T20:39:31.488Z,46.35
2018-03-27T20:41:57.595Z,52.47
2018-03-27T20:44:23.965Z,49.20
2018-03-27T20:46:50.041Z,47.25
2018-03-27T20:49:16.102Z,46.42
2018-03-27T20:51:42.255Z,46.88
2018-03-27T20:54:09.661Z,55.47
2018-03-27T20:56:36.419Z,50.90
2018-03-27T20:59:02.527Z,47.78
2018-03-27T21:01:28.570Z,49.00
2018-03-27T21:03:54.711Z,56.55
2018-03-27T21:06:20.758Z,49.05
2018-03-27T21:08:46.818Z,57.70
2018-03-27T21:11:12.880Z,54.28
2018-03-27T21:13:38.931Z,50.12
2018-03-27T21:16:04.960Z,51.88
2018-03-27T21:18:31.002Z,58.22
2018-03-27T21:20:57.066Z,50.45
2018-03-27T21:23:23.146Z,57.62
2018-03-27T21:25:49.194Z,51.17
2018-03-27T21:28:15.275Z,48.15
2018-03-27T21:30:42.356Z,65.70
2018-03-27T21:33:08.416Z,52.33
2018-03-27T21:35:34.570Z,50.38
2018-03-27T21:38:00.677Z,57.13
2018-03-27T21:40:26.682Z,51.25
2018-03-27T21:42:52.746Z,61.88
2018-03-27T21:45:18.806Z,51.87
2018-03-27T21:47:44.874Z,54.03
2018-03-27T21:50:10.902Z,55.42
2018-03-27T21:52:36.946Z,58.22
2018-03-27T21:55:03.006Z,52.38
2018-03-27T21:57:29.101Z,53.45
2018-03-27T21:59:55.143Z,55.25
2018-03-27T22:02:47.323Z,67.62
2018-03-27T22:05:13.537Z,49.95
2018-03-27T22:07:39.562Z,49.50
2018-03-27T22:10:05.739Z,46.88
2018-03-27T22:12:31.909Z,45.83
2018-03-27T22:14:57.919Z,43.78
2018-03-27T22:17:23.974Z,42.42
2018-03-27T22:19:50.078Z,41.05
2018-03-27T22:22:16.157Z,38.08
2018-03-27T22:24:42.186Z,34.72
2018-03-27T22:27:08.247Z,35.17
2018-03-27T22:29:34.323Z,34.85
2018-03-27T22:32:00.438Z,33.15
2018-03-27T22:34:26.464Z,34.05
2018-03-27T22:36:52.526Z,33.70
2018-03-27T22:39:18.703Z,33.67
2018-03-27T22:41:44.772Z,34.90
2018-03-27T22:44:10.875Z,34.50
2018-03-27T22:46:36.948Z,32.43
2018-03-27T22:49:02.998Z,36.20
2018-03-27T22:51:36.107Z,32.53
2018-03-27T22:54:02.315Z,36.35
2018-03-27T22:56:28.478Z,32.35
2018-03-27T22:58:54.492Z,31.05
2018-03-27T23:01:20.528Z,35.78
2018-03-27T23:03:46.561Z,34.08
2018-03-27T23:06:12.693Z,38.35
2018-03-27T23:08:38.710Z,33.75
2018-03-27T23:11:04.796Z,39.95
2018-03-27T23:13:30.824Z,39.17
2018-03-27T23:15:56.935Z,39.65
2018-03-27T23:18:22.987Z,38.05
2018-03-27T23:20:49.012Z,44.97
2018-03-27T23:23:15.037Z,42.17
2018-03-27T23:25:41.063Z,49.97
2018-03-27T23:28:07.120Z,51.37
2018-03-27T23:30:33.148Z,46.67
2018-03-27T23:32:59.182Z,55.95
2018-03-27T23:35:25.170Z,55.60
2018-03-27T23:37:51.210Z,57.45
2018-03-27T23:40:17.250Z,48.95
2018-03-27T23:42:43.299Z,45.25
2018-03-27T23:45:09.353Z,49.47
2018-03-27T23:47:35.402Z,53.67
2018-03-27T23:50:01.431Z,49.95
2018-03-27T23:52:27.509Z,48.33
2018-03-27T23:54:53.557Z,56.90
2018-03-27T23:57:19.695Z,49.65
2018-03-27T23:59:45.727Z,57.45
